sensor_id;sensor_type;location;lat;lon;timestamp;P1;durP1;ratioP1;P2;durP2;ratioP2
59585;SDS011;45408;52.686;7.310;2024-02-15T00:00:15;21.05;;;12.10;;
59585;SDS011;45408;52.686;7.310;2024-02-15T00:02:43;20.75;;;11.02;;
59585;SDS011;45408;52.686;7.310;2024-02-15T00:05:13;18.95;;;11.48;;
59585;SDS011;45408;52.686;7.310;2024-02-15T00:07:42;19.17;;;10.02;;
59585;SDS011;45408;52.686;7.310;2024-02-15T00:10:10;21.00;;;11.27;;
59585;SDS011;45408;52.686;7.310;2024-02-15T00:12:37;15.90;;;9.27;;
59585;SDS011;45408;52.686;7.310;2024-02-15T00:15:04;19.65;;;11.55;;
59585;SDS011;45408;52.686;7.310;2024-02-15T00:17:31;16.55;;;10.10;;
59585;SDS011;45408;52.686;7.310;2024-02-15T00:19:58;16.10;;;9.40;;
59585;SDS011;45408;52.686;7.310;2024-02-15T00:22:26;22.92;;;11.55;;
59585;SDS011;45408;52.686;7.310;2024-02-15T00:24:53;20.95;;;10.50;;
59585;SDS011;45408;52.686;7.310;2024-02-15T00:27:19;24.50;;;13.30;;
59585;SDS011;45408;52.686;7.310;2024-02-15T00:29:46;33.17;;;16.67;;
59585;SDS011;45408;52.686;7.310;2024-02-15T00:32:12;22.02;;;9.80;;
59585;SDS011;45408;52.686;7.310;2024-02-15T00:34:39;24.35;;;12.38;;
59585;SDS011;45408;52.686;7.310;2024-02-15T00:37:06;25.75;;;11.40;;
59585;SDS011;45408;52.686;7.310;2024-02-15T00:39:33;21.27;;;11.35;;
59585;SDS011;45408;52.686;7.310;2024-02-15T00:41:59;36.25;;;17.17;;
59585;SDS011;45408;52.686;7.310;2024-02-15T00:44:27;27.25;;;12.88;;
59585;SDS011;45408;52.686;7.310;2024-02-15T00:46:53;34.92;;;14.65;;
59585;SDS011;45408;52.686;7.310;2024-02-15T00:49:20;28.90;;;15.30;;
59585;SDS011;45408;52.686;7.310;2024-02-15T00:51:47;44.13;;;22.60;;
59585;SDS011;45408;52.686;7.310;2024-02-15T00:54:13;31.98;;;16.83;;
59585;SDS011;45408;52.686;7.310;2024-02-15T00:56:40;35.10;;;17.25;;
59585;SDS011;45408;52.686;7.310;2024-02-15T00:59:07;34.10;;;15.00;;
59585;SDS011;45408;52.686;7.310;2024-02-15T01:01:33;35.65;;;15.52;;
59585;SDS011;45408;52.686;7.310;2024-02-15T01:04:00;32.42;;;17.13;;
59585;SDS011;45408;52.686;7.310;2024-02-15T01:06:26;33.78;;;16.08;;
59585;SDS011;45408;52.686;7.310;2024-02-15T01:08:53;27.95;;;13.48;;
59585;SDS011;45408;52.686;7.310;2024-02-15T01:11:19;44.70;;;23.15;;
59585;SDS011;45408;52.686;7.310;2024-02-15T01:13:47;40.33;;;19.23;;
59585;SDS011;45408;52.686;7.310;2024-02-15T01:16:13;34.55;;;15.85;;
59585;SDS011;45408;52.686;7.310;2024-02-15T01:18:40;31.00;;;16.38;;
59585;SDS011;45408;52.686;7.310;2024-02-15T01:21:07;41.55;;;21.50;;
59585;SDS011;45408;52.686;7.310;2024-02-15T01:23:33;47.85;;;23.67;;
59585;SDS011;45408;52.686;7.310;2024-02-15T01:26:03;35.72;;;15.80;;
59585;SDS011;45408;52.686;7.310;2024-02-15T01:28:31;44.20;;;21.88;;
59585;SDS011;45408;52.686;7.310;2024-02-15T01:30:57;49.85;;;24.90;;
59585;SDS011;45408;52.686;7.310;2024-02-15T01:33:24;37.50;;;17.80;;
59585;SDS011;45408;52.686;7.310;2024-02-15T01:35:50;44.90;;;22.08;;
59585;SDS011;45408;52.686;7.310;2024-02-15T01:38:17;52.10;;;21.23;;
59585;SDS011;45408;52.686;7.310;2024-02-15T01:40:43;35.15;;;18.33;;
59585;SDS011;45408;52.686;7.310;2024-02-15T01:43:10;48.33;;;22.58;;
59585;SDS011;45408;52.686;7.310;2024-02-15T01:45:36;37.10;;;17.13;;
59585;SDS011;45408;52.686;7.310;2024-02-15T01:48:03;30.77;;;15.43;;
59585;SDS011;45408;52.686;7.310;2024-02-15T01:50:31;41.85;;;19.00;;
59585;SDS011;45408;52.686;7.310;2024-02-15T01:52:59;36.40;;;17.30;;
59585;SDS011;45408;52.686;7.310;2024-02-15T01:57:54;30.23;;;14.75;;
59585;SDS011;45408;52.686;7.310;2024-02-15T02:00:21;31.23;;;16.83;;
59585;SDS011;45408;52.686;7.310;2024-02-15T02:02:48;38.22;;;17.27;;
59585;SDS011;45408;52.686;7.310;2024-02-15T02:05:15;37.33;;;18.60;;
59585;SDS011;45408;52.686;7.310;2024-02-15T02:07:42;34.97;;;19.80;;
59585;SDS011;45408;52.686;7.310;2024-02-15T02:10:08;34.15;;;15.98;;
59585;SDS011;45408;52.686;7.310;2024-02-15T02:12:39;40.08;;;21.00;;
59585;SDS011;45408;52.686;7.310;2024-02-15T02:15:06;36.85;;;15.32;;
59585;SDS011;45408;52.686;7.310;2024-02-15T02:17:34;46.22;;;18.58;;
59585;SDS011;45408;52.686;7.310;2024-02-15T02:20:01;31.00;;;15.82;;
59585;SDS011;45408;52.686;7.310;2024-02-15T02:22:35;30.92;;;15.38;;
59585;SDS011;45408;52.686;7.310;2024-02-15T02:25:05;30.98;;;15.80;;
59585;SDS011;45408;52.686;7.310;2024-02-15T02:27:35;31.38;;;14.43;;
59585;SDS011;45408;52.686;7.310;2024-02-15T02:30:04;40.92;;;16.30;;
59585;SDS011;45408;52.686;7.310;2024-02-15T02:32:41;30.52;;;16.88;;
59585;SDS011;45408;52.686;7.310;2024-02-15T02:35:07;33.58;;;18.33;;
59585;SDS011;45408;52.686;7.310;2024-02-15T02:37:38;25.20;;;14.32;;
59585;SDS011;45408;52.686;7.310;2024-02-15T02:40:08;36.17;;;18.65;;
59585;SDS011;45408;52.686;7.310;2024-02-15T02:42:36;35.20;;;16.38;;
59585;SDS011;45408;52.686;7.310;2024-02-15T02:45:13;35.13;;;15.95;;
59585;SDS011;45408;52.686;7.310;2024-02-15T02:47:39;35.15;;;16.55;;
59585;SDS011;45408;52.686;7.310;2024-02-15T02:50:06;30.63;;;14.18;;
59585;SDS011;45408;52.686;7.310;2024-02-15T02:52:34;28.33;;;13.83;;
59585;SDS011;45408;52.686;7.310;2024-02-15T02:55:00;26.58;;;12.00;;
59585;SDS011;45408;52.686;7.310;2024-02-15T02:57:28;28.92;;;14.57;;
59585;SDS011;45408;52.686;7.310;2024-02-15T02:59:54;31.75;;;14.70;;
59585;SDS011;45408;52.686;7.310;2024-02-15T03:02:21;30.63;;;13.57;;
59585;SDS011;45408;52.686;7.310;2024-02-15T03:04:49;28.23;;;12.77;;
59585;SDS011;45408;52.686;7.310;2024-02-15T03:07:15;26.63;;;12.75;;
59585;SDS011;45408;52.686;7.310;2024-02-15T03:09:44;25.90;;;9.77;;
59585;SDS011;45408;52.686;7.310;2024-02-15T03:12:10;18.27;;;9.98;;
59585;SDS011;45408;52.686;7.310;2024-02-15T03:14:37;22.00;;;9.75;;
59585;SDS011;45408;52.686;7.310;2024-02-15T03:17:03;23.35;;;10.95;;
59585;SDS011;45408;52.686;7.310;2024-02-15T03:19:30;21.25;;;10.02;;
59585;SDS011;45408;52.686;7.310;2024-02-15T03:21:57;21.35;;;9.38;;
59585;SDS011;45408;52.686;7.310;2024-02-15T03:24:23;29.00;;;10.98;;
59585;SDS011;45408;52.686;7.310;2024-02-15T03:26:50;16.65;;;8.38;;
59585;SDS011;45408;52.686;7.310;2024-02-15T03:29:18;17.13;;;8.93;;
59585;SDS011;45408;52.686;7.310;2024-02-15T03:31:47;19.20;;;8.98;;
59585;SDS011;45408;52.686;7.310;2024-02-15T03:34:14;15.23;;;8.60;;
59585;SDS011;45408;52.686;7.310;2024-02-15T03:36:42;18.40;;;9.18;;
59585;SDS011;45408;52.686;7.310;2024-02-15T03:39:08;20.67;;;9.50;;
59585;SDS011;45408;52.686;7.310;2024-02-15T03:41:35;17.38;;;8.70;;
59585;SDS011;45408;52.686;7.310;2024-02-15T03:44:02;21.80;;;10.38;;
59585;SDS011;45408;52.686;7.310;2024-02-15T03:46:30;17.60;;;8.57;;
59585;SDS011;45408;52.686;7.310;2024-02-15T03:48:56;22.08;;;9.23;;
59585;SDS011;45408;52.686;7.310;2024-02-15T03:51:23;24.13;;;10.25;;
59585;SDS011;45408;52.686;7.310;2024-02-15T03:53:50;22.27;;;10.63;;
59585;SDS011;45408;52.686;7.310;2024-02-15T03:56:18;18.25;;;8.98;;
59585;SDS011;45408;52.686;7.310;2024-02-15T03:58:48;20.23;;;10.63;;
59585;SDS011;45408;52.686;7.310;2024-02-15T04:01:16;22.08;;;10.18;;
59585;SDS011;45408;52.686;7.310;2024-02-15T04:03:43;19.15;;;9.95;;
59585;SDS011;45408;52.686;7.310;2024-02-15T04:06:09;23.98;;;11.52;;
59585;SDS011;45408;52.686;7.310;2024-02-15T04:08:37;29.60;;;12.68;;
59585;SDS011;45408;52.686;7.310;2024-02-15T04:11:05;24.17;;;12.98;;
59585;SDS011;45408;52.686;7.310;2024-02-15T04:13:36;21.38;;;11.32;;
59585;SDS011;45408;52.686;7.310;2024-02-15T04:16:03;32.67;;;15.50;;
59585;SDS011;45408;52.686;7.310;2024-02-15T04:18:31;35.03;;;14.23;;
59585;SDS011;45408;52.686;7.310;2024-02-15T04:20:59;29.70;;;12.75;;
59585;SDS011;45408;52.686;7.310;2024-02-15T04:23:25;29.48;;;15.07;;
59585;SDS011;45408;52.686;7.310;2024-02-15T04:25:52;32.30;;;13.63;;
59585;SDS011;45408;52.686;7.310;2024-02-15T04:28:19;26.75;;;14.25;;
59585;SDS011;45408;52.686;7.310;2024-02-15T04:30:46;30.48;;;14.18;;
59585;SDS011;45408;52.686;7.310;2024-02-15T04:33:14;30.88;;;16.25;;
59585;SDS011;45408;52.686;7.310;2024-02-15T04:35:42;29.15;;;15.25;;
59585;SDS011;45408;52.686;7.310;2024-02-15T04:38:09;33.85;;;16.00;;
59585;SDS011;45408;52.686;7.310;2024-02-15T04:40:36;27.52;;;15.25;;
59585;SDS011;45408;52.686;7.310;2024-02-15T04:43:04;26.73;;;13.95;;
59585;SDS011;45408;52.686;7.310;2024-02-15T04:45:31;30.52;;;13.35;;
59585;SDS011;45408;52.686;7.310;2024-02-15T04:47:58;34.10;;;15.52;;
59585;SDS011;45408;52.686;7.310;2024-02-15T04:50:28;28.50;;;15.35;;
59585;SDS011;45408;52.686;7.310;2024-02-15T04:52:55;25.77;;;12.00;;
59585;SDS011;45408;52.686;7.310;2024-02-15T04:55:22;26.15;;;14.23;;
59585;SDS011;45408;52.686;7.310;2024-02-15T04:57:49;31.10;;;13.27;;
59585;SDS011;45408;52.686;7.310;2024-02-15T05:00:21;24.38;;;13.40;;
59585;SDS011;45408;52.686;7.310;2024-02-15T05:02:49;23.55;;;13.80;;
59585;SDS011;45408;52.686;7.310;2024-02-15T05:05:16;30.65;;;16.60;;
59585;SDS011;45408;52.686;7.310;2024-02-15T05:07:43;28.35;;;14.25;;
59585;SDS011;45408;52.686;7.310;2024-02-15T05:10:10;24.52;;;15.18;;
59585;SDS011;45408;52.686;7.310;2024-02-15T05:12:37;33.65;;;17.40;;
59585;SDS011;45408;52.686;7.310;2024-02-15T05:15:03;33.03;;;15.52;;
59585;SDS011;45408;52.686;7.310;2024-02-15T05:17:37;28.52;;;14.35;;
59585;SDS011;45408;52.686;7.310;2024-02-15T05:20:10;29.10;;;16.67;;
59585;SDS011;45408;52.686;7.310;2024-02-15T05:22:41;32.42;;;17.30;;
59585;SDS011;45408;52.686;7.310;2024-02-15T05:25:16;25.73;;;14.23;;
59585;SDS011;45408;52.686;7.310;2024-02-15T05:27:48;26.80;;;14.82;;
59585;SDS011;45408;52.686;7.310;2024-02-15T05:30:15;33.45;;;16.42;;
59585;SDS011;45408;52.686;7.310;2024-02-15T05:32:41;25.08;;;15.27;;
59585;SDS011;45408;52.686;7.310;2024-02-15T05:35:09;31.08;;;15.57;;
59585;SDS011;45408;52.686;7.310;2024-02-15T05:37:37;27.70;;;16.65;;
59585;SDS011;45408;52.686;7.310;2024-02-15T05:40:04;28.23;;;13.48;;
59585;SDS011;45408;52.686;7.310;2024-02-15T05:42:31;32.28;;;14.57;;
59585;SDS011;45408;52.686;7.310;2024-02-15T05:45:04;30.52;;;15.10;;
59585;SDS011;45408;52.686;7.310;2024-02-15T05:48:03;25.73;;;14.70;;
59585;SDS011;45408;52.686;7.310;2024-02-15T05:50:34;27.13;;;14.02;;
59585;SDS011;45408;52.686;7.310;2024-02-15T05:53:00;27.58;;;12.55;;
59585;SDS011;45408;52.686;7.310;2024-02-15T05:55:27;28.00;;;14.93;;
59585;SDS011;45408;52.686;7.310;2024-02-15T05:57:55;29.17;;;13.57;;
59585;SDS011;45408;52.686;7.310;2024-02-15T06:00:22;27.02;;;15.40;;
59585;SDS011;45408;52.686;7.310;2024-02-15T06:02:49;29.05;;;13.32;;
59585;SDS011;45408;52.686;7.310;2024-02-15T06:05:17;29.33;;;13.45;;
59585;SDS011;45408;52.686;7.310;2024-02-15T06:07:44;22.98;;;13.02;;
59585;SDS011;45408;52.686;7.310;2024-02-15T06:10:12;20.75;;;12.30;;
59585;SDS011;45408;52.686;7.310;2024-02-15T06:12:39;29.33;;;13.50;;
59585;SDS011;45408;52.686;7.310;2024-02-15T06:15:06;25.67;;;13.55;;
59585;SDS011;45408;52.686;7.310;2024-02-15T06:17:41;27.00;;;13.32;;
59585;SDS011;45408;52.686;7.310;2024-02-15T06:20:11;29.10;;;13.60;;
59585;SDS011;45408;52.686;7.310;2024-02-15T06:22:40;27.08;;;12.63;;
59585;SDS011;45408;52.686;7.310;2024-02-15T06:25:07;22.92;;;11.80;;
59585;SDS011;45408;52.686;7.310;2024-02-15T06:27:34;23.88;;;11.45;;
59585;SDS011;45408;52.686;7.310;2024-02-15T06:30:03;28.25;;;14.60;;
59585;SDS011;45408;52.686;7.310;2024-02-15T06:32:48;23.77;;;12.95;;
59585;SDS011;45408;52.686;7.310;2024-02-15T06:35:33;25.15;;;12.52;;
59585;SDS011;45408;52.686;7.310;2024-02-15T06:38:23;27.10;;;12.95;;
59585;SDS011;45408;52.686;7.310;2024-02-15T06:41:08;25.67;;;11.20;;
59585;SDS011;45408;52.686;7.310;2024-02-15T06:43:35;24.33;;;10.95;;
59585;SDS011;45408;52.686;7.310;2024-02-15T06:46:03;26.40;;;10.73;;
59585;SDS011;45408;52.686;7.310;2024-02-15T06:48:32;22.42;;;11.10;;
59585;SDS011;45408;52.686;7.310;2024-02-15T06:50:59;14.43;;;8.43;;
59585;SDS011;45408;52.686;7.310;2024-02-15T06:53:26;18.90;;;10.77;;
59585;SDS011;45408;52.686;7.310;2024-02-15T06:55:53;16.73;;;9.50;;
59585;SDS011;45408;52.686;7.310;2024-02-15T06:58:19;21.35;;;12.10;;
59585;SDS011;45408;52.686;7.310;2024-02-15T07:00:47;14.93;;;8.45;;
59585;SDS011;45408;52.686;7.310;2024-02-15T07:03:14;18.98;;;9.07;;
59585;SDS011;45408;52.686;7.310;2024-02-15T07:05:43;24.05;;;11.00;;
59585;SDS011;45408;52.686;7.310;2024-02-15T07:08:10;19.33;;;10.45;;
59585;SDS011;45408;52.686;7.310;2024-02-15T07:10:37;15.70;;;8.90;;
59585;SDS011;45408;52.686;7.310;2024-02-15T07:13:05;25.88;;;10.35;;
59585;SDS011;45408;52.686;7.310;2024-02-15T07:15:33;21.57;;;9.13;;
59585;SDS011;45408;52.686;7.310;2024-02-15T07:18:04;21.40;;;8.95;;
59585;SDS011;45408;52.686;7.310;2024-02-15T07:22:59;20.35;;;8.45;;
59585;SDS011;45408;52.686;7.310;2024-02-15T07:25:26;16.02;;;8.27;;
59585;SDS011;45408;52.686;7.310;2024-02-15T07:27:53;16.77;;;8.32;;
59585;SDS011;45408;52.686;7.310;2024-02-15T07:30:20;22.10;;;9.20;;
59585;SDS011;45408;52.686;7.310;2024-02-15T07:32:51;25.88;;;10.68;;
59585;SDS011;45408;52.686;7.310;2024-02-15T07:35:17;23.88;;;8.10;;
59585;SDS011;45408;52.686;7.310;2024-02-15T07:37:53;22.67;;;9.15;;
59585;SDS011;45408;52.686;7.310;2024-02-15T07:40:22;24.15;;;8.43;;
59585;SDS011;45408;52.686;7.310;2024-02-15T07:42:48;21.83;;;8.88;;
59585;SDS011;45408;52.686;7.310;2024-02-15T07:45:15;14.88;;;7.90;;
59585;SDS011;45408;52.686;7.310;2024-02-15T07:47:42;15.30;;;8.98;;
59585;SDS011;45408;52.686;7.310;2024-02-15T07:50:09;16.17;;;8.82;;
59585;SDS011;45408;52.686;7.310;2024-02-15T07:52:36;20.60;;;9.00;;
59585;SDS011;45408;52.686;7.310;2024-02-15T07:55:02;20.50;;;10.00;;
59585;SDS011;45408;52.686;7.310;2024-02-15T07:57:34;20.20;;;7.75;;
59585;SDS011;45408;52.686;7.310;2024-02-15T08:00:01;17.55;;;7.55;;
59585;SDS011;45408;52.686;7.310;2024-02-15T08:02:32;11.77;;;7.15;;
59585;SDS011;45408;52.686;7.310;2024-02-15T08:04:59;14.52;;;7.53;;
59585;SDS011;45408;52.686;7.310;2024-02-15T08:07:26;19.08;;;8.25;;
59585;SDS011;45408;52.686;7.310;2024-02-15T08:09:58;19.08;;;8.85;;
59585;SDS011;45408;52.686;7.310;2024-02-15T08:12:24;16.67;;;8.50;;
59585;SDS011;45408;52.686;7.310;2024-02-15T08:14:52;15.90;;;7.85;;
59585;SDS011;45408;52.686;7.310;2024-02-15T08:17:19;15.70;;;7.53;;
59585;SDS011;45408;52.686;7.310;2024-02-15T08:19:45;14.75;;;8.43;;
59585;SDS011;45408;52.686;7.310;2024-02-15T08:22:12;18.83;;;7.25;;
59585;SDS011;45408;52.686;7.310;2024-02-15T08:24:39;21.98;;;7.78;;
59585;SDS011;45408;52.686;7.310;2024-02-15T08:27:05;14.70;;;7.88;;
59585;SDS011;45408;52.686;7.310;2024-02-15T08:29:32;16.25;;;8.00;;
59585;SDS011;45408;52.686;7.310;2024-02-15T08:32:00;18.95;;;8.48;;
59585;SDS011;45408;52.686;7.310;2024-02-15T08:34:26;17.95;;;7.72;;
59585;SDS011;45408;52.686;7.310;2024-02-15T08:36:54;14.35;;;7.30;;
59585;SDS011;45408;52.686;7.310;2024-02-15T08:39:20;15.80;;;7.18;;
59585;SDS011;45408;52.686;7.310;2024-02-15T08:41:49;15.68;;;6.82;;
59585;SDS011;45408;52.686;7.310;2024-02-15T08:46:45;15.10;;;6.90;;
59585;SDS011;45408;52.686;7.310;2024-02-15T08:49:14;12.90;;;6.18;;
59585;SDS011;45408;52.686;7.310;2024-02-15T08:51:41;13.45;;;6.38;;
59585;SDS011;45408;52.686;7.310;2024-02-15T08:54:08;16.08;;;7.40;;
59585;SDS011;45408;52.686;7.310;2024-02-15T08:56:35;9.98;;;6.07;;
59585;SDS011;45408;52.686;7.310;2024-02-15T08:59:02;16.45;;;6.72;;
59585;SDS011;45408;52.686;7.310;2024-02-15T09:01:30;12.25;;;6.22;;
59585;SDS011;45408;52.686;7.310;2024-02-15T09:03:57;17.08;;;6.57;;
59585;SDS011;45408;52.686;7.310;2024-02-15T09:06:24;16.08;;;6.45;;
59585;SDS011;45408;52.686;7.310;2024-02-15T09:08:50;10.18;;;6.22;;
59585;SDS011;45408;52.686;7.310;2024-02-15T09:11:17;11.57;;;6.47;;
59585;SDS011;45408;52.686;7.310;2024-02-15T09:13:45;10.43;;;5.93;;
59585;SDS011;45408;52.686;7.310;2024-02-15T09:16:11;13.65;;;5.85;;
59585;SDS011;45408;52.686;7.310;2024-02-15T09:18:38;8.60;;;5.95;;
59585;SDS011;45408;52.686;7.310;2024-02-15T09:21:11;9.82;;;5.55;;
59585;SDS011;45408;52.686;7.310;2024-02-15T09:23:38;8.43;;;5.68;;
59585;SDS011;45408;52.686;7.310;2024-02-15T09:26:05;9.40;;;6.18;;
59585;SDS011;45408;52.686;7.310;2024-02-15T09:28:32;9.45;;;5.40;;
59585;SDS011;45408;52.686;7.310;2024-02-15T09:30:58;10.88;;;5.75;;
59585;SDS011;45408;52.686;7.310;2024-02-15T09:33:25;8.68;;;5.15;;
59585;SDS011;45408;52.686;7.310;2024-02-15T09:35:52;8.98;;;5.05;;
59585;SDS011;45408;52.686;7.310;2024-02-15T09:38:21;9.55;;;5.53;;
59585;SDS011;45408;52.686;7.310;2024-02-15T09:40:48;8.98;;;5.15;;
59585;SDS011;45408;52.686;7.310;2024-02-15T09:43:15;11.32;;;5.45;;
59585;SDS011;45408;52.686;7.310;2024-02-15T09:45:42;6.75;;;4.60;;
59585;SDS011;45408;52.686;7.310;2024-02-15T09:48:10;11.68;;;5.25;;
59585;SDS011;45408;52.686;7.310;2024-02-15T09:50:41;12.23;;;5.30;;
59585;SDS011;45408;52.686;7.310;2024-02-15T09:53:12;10.50;;;5.13;;
59585;SDS011;45408;52.686;7.310;2024-02-15T09:55:41;9.27;;;5.28;;
59585;SDS011;45408;52.686;7.310;2024-02-15T09:58:08;8.60;;;4.95;;
59585;SDS011;45408;52.686;7.310;2024-02-15T10:00:35;9.60;;;5.82;;
59585;SDS011;45408;52.686;7.310;2024-02-15T10:03:02;8.60;;;5.38;;
59585;SDS011;45408;52.686;7.310;2024-02-15T10:05:32;7.25;;;4.65;;
59585;SDS011;45408;52.686;7.310;2024-02-15T10:07:58;10.93;;;4.50;;
59585;SDS011;45408;52.686;7.310;2024-02-15T10:10:27;9.10;;;4.80;;
59585;SDS011;45408;52.686;7.310;2024-02-15T10:12:54;9.10;;;4.65;;
59585;SDS011;45408;52.686;7.310;2024-02-15T10:15:37;6.82;;;4.85;;
59585;SDS011;45408;52.686;7.310;2024-02-15T10:18:05;12.32;;;4.90;;
59585;SDS011;45408;52.686;7.310;2024-02-15T10:20:35;8.70;;;5.00;;
59585;SDS011;45408;52.686;7.310;2024-02-15T10:25:35;8.88;;;5.43;;
59585;SDS011;45408;52.686;7.310;2024-02-15T10:28:06;10.18;;;5.00;;
59585;SDS011;45408;52.686;7.310;2024-02-15T10:30:34;6.90;;;5.13;;
59585;SDS011;45408;52.686;7.310;2024-02-15T10:33:02;7.70;;;4.25;;
59585;SDS011;45408;52.686;7.310;2024-02-15T10:35:29;8.05;;;4.93;;
59585;SDS011;45408;52.686;7.310;2024-02-15T10:38:04;9.93;;;4.93;;
59585;SDS011;45408;52.686;7.310;2024-02-15T10:40:34;8.52;;;4.72;;
59585;SDS011;45408;52.686;7.310;2024-02-15T10:43:02;9.02;;;4.82;;
59585;SDS011;45408;52.686;7.310;2024-02-15T10:47:57;5.63;;;4.30;;
59585;SDS011;45408;52.686;7.310;2024-02-15T10:50:24;7.65;;;4.90;;
59585;SDS011;45408;52.686;7.310;2024-02-15T10:52:54;4.18;;;3.78;;
59585;SDS011;45408;52.686;7.310;2024-02-15T10:55:28;8.50;;;4.20;;
59585;SDS011;45408;52.686;7.310;2024-02-15T10:58:01;6.97;;;4.05;;
59585;SDS011;45408;52.686;7.310;2024-02-15T11:00:32;6.63;;;3.90;;
59585;SDS011;45408;52.686;7.310;2024-02-15T11:05:33;10.35;;;3.90;;
59585;SDS011;45408;52.686;7.310;2024-02-15T11:08:04;6.60;;;3.67;;
59585;SDS011;45408;52.686;7.310;2024-02-15T11:10:33;6.05;;;3.92;;
59585;SDS011;45408;52.686;7.310;2024-02-15T11:13:00;4.75;;;3.42;;
59585;SDS011;45408;52.686;7.310;2024-02-15T11:18:05;6.25;;;3.90;;
59585;SDS011;45408;52.686;7.310;2024-02-15T11:23:00;5.35;;;3.00;;
59585;SDS011;45408;52.686;7.310;2024-02-15T11:25:39;4.00;;;3.10;;
59585;SDS011;45408;52.686;7.310;2024-02-15T11:30:48;7.53;;;3.85;;
59585;SDS011;45408;52.686;7.310;2024-02-15T11:33:25;6.05;;;3.40;;
59585;SDS011;45408;52.686;7.310;2024-02-15T11:36:04;3.88;;;2.85;;
59585;SDS011;45408;52.686;7.310;2024-02-15T11:38:32;4.00;;;3.20;;
59585;SDS011;45408;52.686;7.310;2024-02-15T11:40:59;7.50;;;3.10;;
59585;SDS011;45408;52.686;7.310;2024-02-15T11:43:44;5.88;;;3.63;;
59585;SDS011;45408;52.686;7.310;2024-02-15T11:46:12;6.40;;;3.17;;
59585;SDS011;45408;52.686;7.310;2024-02-15T11:48:40;4.25;;;3.15;;
59585;SDS011;45408;52.686;7.310;2024-02-15T11:51:07;5.05;;;2.38;;
59585;SDS011;45408;52.686;7.310;2024-02-15T11:53:37;5.45;;;2.75;;
59585;SDS011;45408;52.686;7.310;2024-02-15T11:56:04;6.15;;;2.80;;
59585;SDS011;45408;52.686;7.310;2024-02-15T11:58:31;4.82;;;2.45;;
59585;SDS011;45408;52.686;7.310;2024-02-15T12:01:18;6.55;;;3.30;;
59585;SDS011;45408;52.686;7.310;2024-02-15T12:04:03;4.22;;;2.35;;
59585;SDS011;45408;52.686;7.310;2024-02-15T12:06:49;7.05;;;3.30;;
59585;SDS011;45408;52.686;7.310;2024-02-15T12:09:42;5.05;;;2.78;;
59585;SDS011;45408;52.686;7.310;2024-02-15T12:12:32;5.80;;;3.00;;
59585;SDS011;45408;52.686;7.310;2024-02-15T12:15:17;7.45;;;3.45;;
59585;SDS011;45408;52.686;7.310;2024-02-15T12:18:15;2.88;;;2.17;;
59585;SDS011;45408;52.686;7.310;2024-02-15T12:21:02;5.60;;;2.80;;
59585;SDS011;45408;52.686;7.310;2024-02-15T12:23:30;9.90;;;3.97;;
59585;SDS011;45408;52.686;7.310;2024-02-15T12:26:00;10.55;;;3.25;;
59585;SDS011;45408;52.686;7.310;2024-02-15T12:28:33;8.77;;;3.90;;
59585;SDS011;45408;52.686;7.310;2024-02-15T12:31:01;6.88;;;2.92;;
59585;SDS011;45408;52.686;7.310;2024-02-15T12:33:28;7.60;;;3.28;;
59585;SDS011;45408;52.686;7.310;2024-02-15T12:36:05;6.25;;;3.35;;
59585;SDS011;45408;52.686;7.310;2024-02-15T12:38:32;6.70;;;3.65;;
59585;SDS011;45408;52.686;7.310;2024-02-15T12:41:26;9.93;;;3.58;;
59585;SDS011;45408;52.686;7.310;2024-02-15T12:43:54;5.72;;;3.20;;
59585;SDS011;45408;52.686;7.310;2024-02-15T12:46:23;6.97;;;3.22;;
59585;SDS011;45408;52.686;7.310;2024-02-15T12:48:49;4.00;;;3.13;;
59585;SDS011;45408;52.686;7.310;2024-02-15T12:51:32;7.22;;;3.67;;
59585;SDS011;45408;52.686;7.310;2024-02-15T12:54:09;7.93;;;3.40;;
59585;SDS011;45408;52.686;7.310;2024-02-15T12:56:37;6.53;;;3.88;;
59585;SDS011;45408;52.686;7.310;2024-02-15T12:59:03;6.25;;;3.92;;
59585;SDS011;45408;52.686;7.310;2024-02-15T13:01:30;6.32;;;3.42;;
59585;SDS011;45408;52.686;7.310;2024-02-15T13:03:57;5.65;;;4.03;;
59585;SDS011;45408;52.686;7.310;2024-02-15T13:06:23;9.90;;;3.67;;
59585;SDS011;45408;52.686;7.310;2024-02-15T13:08:50;11.70;;;4.85;;
59585;SDS011;45408;52.686;7.310;2024-02-15T13:11:17;6.65;;;4.32;;
59585;SDS011;45408;52.686;7.310;2024-02-15T13:13:44;7.18;;;4.50;;
59585;SDS011;45408;52.686;7.310;2024-02-15T13:16:10;7.93;;;4.55;;
59585;SDS011;45408;52.686;7.310;2024-02-15T13:18:37;11.00;;;5.32;;
59585;SDS011;45408;52.686;7.310;2024-02-15T13:21:04;11.30;;;5.43;;
59585;SDS011;45408;52.686;7.310;2024-02-15T13:23:32;9.13;;;4.97;;
59585;SDS011;45408;52.686;7.310;2024-02-15T13:26:02;11.32;;;4.65;;
59585;SDS011;45408;52.686;7.310;2024-02-15T13:28:30;8.27;;;4.95;;
59585;SDS011;45408;52.686;7.310;2024-02-15T13:30:57;12.00;;;5.30;;
59585;SDS011;45408;52.686;7.310;2024-02-15T13:33:23;7.43;;;4.93;;
59585;SDS011;45408;52.686;7.310;2024-02-15T13:35:52;9.32;;;5.60;;
59585;SDS011;45408;52.686;7.310;2024-02-15T13:38:19;13.93;;;6.00;;
59585;SDS011;45408;52.686;7.310;2024-02-15T13:40:50;11.18;;;5.55;;
59585;SDS011;45408;52.686;7.310;2024-02-15T13:43:21;11.73;;;6.57;;
59585;SDS011;45408;52.686;7.310;2024-02-15T13:45:47;11.60;;;5.97;;
59585;SDS011;45408;52.686;7.310;2024-02-15T13:48:15;9.82;;;5.90;;
59585;SDS011;45408;52.686;7.310;2024-02-15T13:50:42;7.88;;;5.60;;
59585;SDS011;45408;52.686;7.310;2024-02-15T13:53:10;17.25;;;5.57;;
59585;SDS011;45408;52.686;7.310;2024-02-15T13:55:37;11.90;;;6.47;;
59585;SDS011;45408;52.686;7.310;2024-02-15T13:58:03;11.48;;;6.45;;
59585;SDS011;45408;52.686;7.310;2024-02-15T14:00:30;13.32;;;6.65;;
59585;SDS011;45408;52.686;7.310;2024-02-15T14:03:00;9.50;;;6.07;;
59585;SDS011;45408;52.686;7.310;2024-02-15T14:05:28;10.03;;;6.00;;
59585;SDS011;45408;52.686;7.310;2024-02-15T14:07:59;11.90;;;5.55;;
59585;SDS011;45408;52.686;7.310;2024-02-15T14:10:30;8.25;;;6.05;;
59585;SDS011;45408;52.686;7.310;2024-02-15T14:12:57;9.15;;;5.72;;
59585;SDS011;45408;52.686;7.310;2024-02-15T14:15:40;12.43;;;5.95;;
59585;SDS011;45408;52.686;7.310;2024-02-15T14:18:11;10.65;;;5.80;;
59585;SDS011;45408;52.686;7.310;2024-02-15T14:20:45;12.15;;;5.30;;
59585;SDS011;45408;52.686;7.310;2024-02-15T14:23:16;8.75;;;5.72;;
59585;SDS011;45408;52.686;7.310;2024-02-15T14:25:43;11.98;;;5.80;;
59585;SDS011;45408;52.686;7.310;2024-02-15T14:28:11;12.63;;;5.53;;
59585;SDS011;45408;52.686;7.310;2024-02-15T14:30:39;10.93;;;5.45;;
59585;SDS011;45408;52.686;7.310;2024-02-15T14:33:24;10.25;;;5.63;;
59585;SDS011;45408;52.686;7.310;2024-02-15T14:35:59;14.98;;;5.40;;
59585;SDS011;45408;52.686;7.310;2024-02-15T14:38:27;11.47;;;5.10;;
59585;SDS011;45408;52.686;7.310;2024-02-15T14:40:55;14.75;;;4.40;;
59585;SDS011;45408;52.686;7.310;2024-02-15T14:43:24;9.02;;;5.10;;
59585;SDS011;45408;52.686;7.310;2024-02-15T14:45:52;12.55;;;4.53;;
59585;SDS011;45408;52.686;7.310;2024-02-15T14:48:20;12.23;;;5.43;;
59585;SDS011;45408;52.686;7.310;2024-02-15T14:50:47;9.83;;;4.30;;
59585;SDS011;45408;52.686;7.310;2024-02-15T14:53:16;11.40;;;5.93;;
59585;SDS011;45408;52.686;7.310;2024-02-15T14:55:44;16.58;;;6.68;;
59585;SDS011;45408;52.686;7.310;2024-02-15T14:58:14;8.93;;;5.18;;
59585;SDS011;45408;52.686;7.310;2024-02-15T15:00:43;13.57;;;4.10;;
59585;SDS011;45408;52.686;7.310;2024-02-15T15:03:14;12.73;;;4.80;;
59585;SDS011;45408;52.686;7.310;2024-02-15T15:05:41;9.80;;;3.72;;